Time;durP1;ratioP1;P1;durP2;ratioP2;P2;SDS_P1;SDS_P2;PMS_P1;PMS_P2;Temp;Humidity;BMP_temperature;BMP_pressure;BME280_temperature;BME280_humidity;BME280_pressure;Samples;Min_cycle;Max_cycle;Signal;HPM_P1;HPM_P2
2023/07/09 00:00:16;;;;;;;6.32;2.80;;;;;;;22.43;49.30;97054.69;6275103;22;20027;-77
2023/07/09 00:02:43;;;;;;;4.38;2.30;;;;;;;22.48;49.22;97052.09;6275859;22;20023;-77
2023/07/09 00:05:16;;;;;;;4.63;2.78;;;;;;;22.52;49.32;97053.22;6275448;22;20055;-77
2023/07/09 00:07:46;;;;;;;2.88;2.20;;;;;;;22.53;49.31;97054.81;6287980;22;20004;-76
2023/07/09 00:10:19;;;;;;;3.65;2.70;;;;;;;22.43;49.44;97054.69;6299675;22;20054;-77
2023/07/09 00:12:47;;;;;;;6.18;2.50;;;;;;;22.29;49.38;97048.94;6300385;22;20015;-77
2023/07/09 00:15:17;;;;;;;4.45;2.85;;;;;;;22.17;50.18;97053.50;6293752;22;20023;-77
2023/07/09 00:17:46;;;;;;;4.03;2.60;;;;;;;22.07;50.07;97048.88;6297745;22;20019;-77
2023/07/09 00:20:19;;;;;;;5.53;2.53;;;;;;;21.97;50.40;97051.38;6295471;22;20024;-77
2023/07/09 00:22:52;;;;;;;4.97;2.60;;;;;;;21.90;50.93;97058.72;6278840;22;20409;-77
2023/07/09 00:25:20;;;;;;;4.18;2.60;;;;;;;21.86;50.69;97062.91;6276016;22;20330;-77
2023/07/09 00:27:49;;;;;;;3.78;2.53;;;;;;;21.81;51.09;97066.28;6275514;22;20079;-77
2023/07/09 00:30:19;;;;;;;4.47;2.28;;;;;;;21.82;50.86;97065.22;6275218;22;20387;-77
2023/07/09 00:32:46;;;;;;;5.32;2.90;;;;;;;21.87;50.67;97056.56;6275694;22;20023;-77
2023/07/09 00:35:15;;;;;;;4.28;2.03;;;;;;;21.92;50.66;97072.56;6275545;22;20019;-77
2023/07/09 00:37:44;;;;;;;4.25;2.75;;;;;;;21.95;50.71;97067.56;6275270;22;20024;-77
2023/07/09 00:40:18;;;;;;;3.88;2.15;;;;;;;21.93;50.80;97072.31;6274964;22;20066;-77
2023/07/09 00:42:48;;;;;;;3.83;2.30;;;;;;;21.91;50.73;97066.44;6275451;22;20532;-77
2023/07/09 00:45:20;;;;;;;6.75;2.60;;;;;;;21.93;50.44;97066.19;6275539;22;20103;-77
2023/07/09 00:47:57;;;;;;;3.60;2.60;;;;;;;21.93;50.89;97071.50;6276029;22;20024;-77
2023/07/09 00:50:34;;;;;;;6.40;2.55;;;;;;;21.88;51.18;97068.78;6275932;22;20026;-77
2023/07/09 00:53:07;;;;;;;6.18;2.50;;;;;;;21.91;50.88;97076.25;6277663;22;20155;-77
2023/07/09 00:55:43;;;;;;;3.88;2.35;;;;;;;21.96;51.08;97073.69;6277622;22;20024;-77
2023/07/09 00:58:16;;;;;;;3.63;2.33;;;;;;;21.99;51.27;97067.88;6277374;22;20069;-77
2023/07/09 01:00:47;;;;;;;4.82;2.28;;;;;;;21.96;50.83;97071.81;6277310;22;20098;-77
2023/07/09 01:03:22;;;;;;;5.80;2.60;;;;;;;21.94;50.74;97073.13;6277530;22;20023;-77
2023/07/09 01:05:51;;;;;;;6.72;2.60;;;;;;;21.90;51.06;97066.69;6277627;22;20028;-77
2023/07/09 01:08:20;;;;;;;4.07;2.42;;;;;;;21.79;51.09;97071.81;6276905;22;20484;-77
2023/07/09 01:10:49;;;;;;;5.30;2.72;;;;;;;21.70;51.60;97067.97;6276756;22;20043;-77
2023/07/09 01:13:19;;;;;;;3.95;2.60;;;;;;;21.67;51.70;97073.78;6277441;22;20042;-77
2023/07/09 01:15:48;;;;;;;4.20;2.78;;;;;;;21.63;51.89;97069.97;6277391;22;20016;-77
2023/07/09 01:18:15;;;;;;;2.85;2.30;;;;;;;21.65;51.97;97075.06;6276766;22;20483;-77
2023/07/09 01:20:43;;;;;;;4.80;2.35;;;;;;;21.66;51.65;97074.00;6276427;22;20024;-77
2023/07/09 01:23:12;;;;;;;5.18;2.38;;;;;;;21.68;51.99;97071.91;6277334;22;20055;-77
2023/07/09 01:25:45;;;;;;;6.10;2.67;;;;;;;21.68;52.05;97074.56;6277051;22;20034;-77
2023/07/09 01:28:16;;;;;;;5.03;2.53;;;;;;;21.62;51.78;97070.22;6276996;22;20046;-77
2023/07/09 01:30:44;;;;;;;6.53;2.80;;;;;;;21.57;52.35;97069.09;6276262;22;20211;-77
2023/07/09 01:33:11;;;;;;;4.22;2.58;;;;;;;21.54;52.04;97079.41;6277298;22;20030;-77
2023/07/09 01:35:42;;;;;;;3.80;2.47;;;;;;;21.58;52.51;97075.19;6277188;22;20364;-77
2023/07/09 01:38:09;;;;;;;5.45;2.97;;;;;;;21.63;51.89;97074.50;6277241;22;20027;-77
2023/07/09 01:40:38;;;;;;;6.35;2.90;;;;;;;21.59;52.07;97071.50;6276287;22;20047;-77
2023/07/09 01:43:07;;;;;;;5.25;2.58;;;;;;;21.52;52.22;97068.22;6276926;22;20069;-77
2023/07/09 01:45:37;;;;;;;4.20;2.50;;;;;;;21.48;52.57;97067.06;6276855;22;20023;-77
2023/07/09 01:48:05;;;;;;;7.13;2.70;;;;;;;21.49;52.47;97060.72;6276825;22;20055;-77
2023/07/09 01:50:33;;;;;;;4.50;2.50;;;;;;;21.46;52.46;97067.31;6276571;22;20030;-77
2023/07/09 01:53:01;;;;;;;4.47;2.35;;;;;;;21.45;52.65;97067.53;6276931;22;20404;-76
2023/07/09 01:55:29;;;;;;;4.70;2.60;;;;;;;21.43;52.49;97067.81;6276527;22;20468;-77
2023/07/09 01:57:58;;;;;;;4.22;2.33;;;;;;;21.39;52.67;97067.44;6276828;22;20095;-77
2023/07/09 02:00:26;;;;;;;4.93;2.78;;;;;;;21.32;53.13;97072.09;6275883;22;20539;-77
2023/07/09 02:02:54;;;;;;;5.32;2.83;;;;;;;21.27;53.09;97069.31;6275968;22;20055;-77
2023/07/09 02:05:22;;;;;;;3.95;2.50;;;;;;;21.30;52.92;97071.53;6276547;22;20024;-77
2023/07/09 02:07:50;;;;;;;4.38;2.45;;;;;;;21.38;53.25;97070.31;6276786;22;20104;-77
2023/07/09 02:10:18;;;;;;;5.43;2.70;;;;;;;21.45;53.11;97075.50;6276376;22;20046;-77
2023/07/09 02:12:46;;;;;;;3.58;2.38;;;;;;;21.45;53.04;97078.97;6276781;22;20077;-77
2023/07/09 02:15:16;;;;;;;6.90;3.00;;;;;;;21.49;52.89;97077.44;6276770;22;20043;-77
2023/07/09 02:17:44;;;;;;;4.93;2.80;;;;;;;21.49;52.88;97081.94;6276472;22;20024;-77
2023/07/09 02:20:12;;;;;;;3.72;2.58;;;;;;;21.44;53.03;97082.66;6275878;22;20023;-77
2023/07/09 02:22:40;;;;;;;5.65;3.05;;;;;;;21.40;53.07;97074.34;6276660;22;20028;-77
2023/07/09 02:25:09;;;;;;;3.50;2.65;;;;;;;21.31;53.67;97081.09;6276461;22;20019;-77
2023/07/09 02:27:38;;;;;;;4.97;2.50;;;;;;;21.24;53.88;97072.47;6276407;22;20020;-77
2023/07/09 02:30:07;;;;;;;6.60;2.58;;;;;;;21.22;54.24;97082.50;6276514;22;20020;-77
2023/07/09 02:32:36;;;;;;;6.38;2.65;;;;;;;21.22;54.15;97077.22;6276719;22;20044;-77
2023/07/09 02:35:05;;;;;;;3.17;2.63;;;;;;;21.21;53.98;97080.91;6276572;22;20024;-77
2023/07/09 02:37:32;;;;;;;4.55;2.75;;;;;;;21.15;54.14;97076.56;6276419;22;20051;-77
2023/07/09 02:40:00;;;;;;;6.05;2.72;;;;;;;21.04;54.30;97080.06;6275769;22;20020;-77
2023/07/09 02:42:27;;;;;;;5.53;2.70;;;;;;;20.97;54.65;97083.66;6276554;22;20361;-77
2023/07/09 02:44:55;;;;;;;5.40;2.60;;;;;;;20.90;54.55;97083.00;6276307;22;20058;-77
2023/07/09 02:47:23;;;;;;;5.78;2.80;;;;;;;20.85;54.95;97087.38;6276084;22;20564;-77
2023/07/09 02:49:52;;;;;;;4.70;2.58;;;;;;;20.86;55.12;97088.97;6275646;22;20473;-77
2023/07/09 02:52:19;;;;;;;5.70;3.03;;;;;;;20.84;55.06;97089.25;6275861;22;20023;-77
2023/07/09 02:54:47;;;;;;;4.35;2.78;;;;;;;20.82;55.15;97088.66;6275762;22;20023;-77
2023/07/09 02:57:14;;;;;;;4.07;2.65;;;;;;;20.83;55.01;97090.25;6276202;22;20023;-77
2023/07/09 02:59:42;;;;;;;5.88;2.97;;;;;;;20.86;55.09;97095.13;6275857;22;20046;-77
2023/07/09 03:02:10;;;;;;;5.18;3.15;;;;;;;20.83;55.25;97095.56;6276286;22;20406;-77
2023/07/09 03:04:38;;;;;;;4.03;2.97;;;;;;;20.79;55.18;97094.41;6283662;22;20106;-78
2023/07/09 03:07:07;;;;;;;5.88;3.03;;;;;;;20.72;55.57;97093.75;6290626;22;20077;-78
2023/07/09 03:09:35;;;;;;;3.53;2.70;;;;;;;20.72;55.38;97093.75;6282631;22;20020;-77
2023/07/09 03:12:02;;;;;;;4.72;3.03;;;;;;;20.72;55.42;97096.41;6277042;22;20024;-77
2023/07/09 03:14:30;;;;;;;6.07;3.55;;;;;;;20.72;55.58;97094.56;6276198;22;20031;-77
2023/07/09 03:16:57;;;;;;;4.93;2.88;;;;;;;20.71;55.48;97100.91;6276633;22;20024;-77
2023/07/09 03:19:25;;;;;;;4.22;3.22;;;;;;;20.69;55.58;97108.28;6275861;22;20027;-77
2023/07/09 03:21:53;;;;;;;7.68;3.15;;;;;;;20.68;55.62;97104.00;6276490;22;20353;-77
2023/07/09 03:24:22;;;;;;;3.25;2.72;;;;;;;20.65;56.14;97107.13;6276447;22;20047;-77
2023/07/09 03:26:49;;;;;;;5.47;3.03;;;;;;;20.62;56.17;97110.28;6276381;22;20019;-77
2023/07/09 03:29:17;;;;;;;6.03;3.17;;;;;;;20.57;56.29;97110.97;6276133;22;20338;-77
2023/07/09 03:31:44;;;;;;;6.68;3.10;;;;;;;20.52;56.39;97113.47;6275558;22;20031;-77
2023/07/09 03:34:12;;;;;;;4.80;3.10;;;;;;;20.50;56.63;97118.19;6276022;22;20042;-77
2023/07/09 03:36:39;;;;;;;5.15;2.65;;;;;;;20.54;56.58;97113.25;6275979;22;20560;-77
2023/07/09 03:39:07;;;;;;;4.07;3.30;;;;;;;20.54;56.46;97103.44;6276034;22;20019;-77
2023/07/09 03:41:36;;;;;;;4.57;2.72;;;;;;;20.53;56.45;97115.09;6275524;22;20356;-77
2023/07/09 03:44:04;;;;;;;5.25;3.15;;;;;;;20.54;56.58;97108.75;6276214;22;20024;-77
2023/07/09 03:46:32;;;;;;;5.22;3.10;;;;;;;20.58;56.50;97109.91;6275993;22;20031;-77
2023/07/09 03:49:00;;;;;;;5.93;2.95;;;;;;;20.58;56.59;97114.41;6275967;22;20020;-77
2023/07/09 03:51:27;;;;;;;7.00;3.50;;;;;;;20.54;56.68;97121.19;6275455;22;20020;-77
2023/07/09 03:53:55;;;;;;;3.65;2.97;;;;;;;20.51;56.79;97125.13;6276400;22;20346;-77
2023/07/09 03:56:23;;;;;;;6.88;2.88;;;;;;;20.55;56.64;97120.13;6275656;22;20469;-77
2023/07/09 03:58:52;;;;;;;4.75;2.90;;;;;;;20.56;56.79;97121.78;6276401;22;20016;-77
2023/07/09 04:01:19;;;;;;;6.00;3.28;;;;;;;20.55;56.93;97122.78;6275667;22;20061;-77
2023/07/09 04:03:47;;;;;;;6.00;3.88;;;;;;;20.59;56.61;97126.63;6275882;22;20024;-77
2023/07/09 04:06:15;;;;;;;7.20;3.08;;;;;;;20.58;56.62;97128.47;6276079;22;20019;-77
2023/07/09 04:08:42;;;;;;;3.55;2.83;;;;;;;20.51;56.92;97124.28;6275362;22;20028;-77
2023/07/09 04:11:10;;;;;;;4.13;3.03;;;;;;;20.45;57.07;97127.88;6275329;22;20095;-77
2023/07/09 04:13:38;;;;;;;4.05;3.03;;;;;;;20.35;57.32;97120.50;6275869;22;20069;-77
2023/07/09 04:16:07;;;;;;;4.85;3.33;;;;;;;20.28;57.67;97130.44;6275462;22;20070;-77
2023/07/09 04:18:36;;;;;;;5.70;3.55;;;;;;;20.23;57.55;97130.31;6275862;22;20078;-77
2023/07/09 04:21:04;;;;;;;4.00;3.10;;;;;;;20.20;57.74;97128.09;6275030;22;20026;-77
2023/07/09 04:23:31;;;;;;;6.78;3.83;;;;;;;20.24;58.02;97129.25;6275586;22;20099;-77
2023/07/09 04:26:02;;;;;;;5.30;3.10;;;;;;;20.31;57.64;97136.06;6274950;22;20026;-77
2023/07/09 04:28:31;;;;;;;4.83;2.97;;;;;;;20.43;57.44;97132.63;6275598;22;20077;-77
2023/07/09 04:30:59;;;;;;;4.88;3.45;;;;;;;20.55;57.07;97134.22;6275279;22;20066;-77
2023/07/09 04:33:28;;;;;;;3.80;3.10;;;;;;;20.67;56.82;97133.44;6275984;22;20077;-77
2023/07/09 04:35:56;;;;;;;6.63;3.20;;;;;;;20.73;56.57;97132.50;6275741;22;20081;-77
2023/07/09 04:38:24;;;;;;;4.97;2.90;;;;;;;20.78;56.37;97129.94;6275490;22;20100;-77
2023/07/09 04:40:51;;;;;;;3.63;2.80;;;;;;;20.85;56.24;97132.47;6274344;22;20103;-77
2023/07/09 04:43:19;;;;;;;4.70;3.10;;;;;;;20.91;56.11;97123.56;6275559;22;20055;-77
2023/07/09 04:45:46;;;;;;;6.07;3.22;;;;;;;20.89;56.44;97131.75;6275507;22;20023;-77
2023/07/09 04:48:14;;;;;;;6.53;3.22;;;;;;;20.84;56.36;97125.53;6275553;22;20077;-77
2023/07/09 04:50:43;;;;;;;6.15;3.47;;;;;;;20.81;56.83;97124.16;6274846;22;20031;-77
2023/07/09 04:53:11;;;;;;;6.32;2.92;;;;;;;20.80;56.58;97130.50;6275767;22;20023;-77
2023/07/09 04:55:39;;;;;;;7.32;3.35;;;;;;;20.78;56.86;97124.63;6275684;22;20023;-77
2023/07/09 04:58:07;;;;;;;10.27;3.78;;;;;;;20.76;56.97;97127.50;6275506;22;20048;-77
2023/07/09 05:00:34;;;;;;;6.32;3.13;;;;;;;20.75;57.29;97125.09;6275064;22;20077;-77
2023/07/09 05:03:02;;;;;;;4.65;2.92;;;;;;;20.75;57.34;97131.22;6275585;22;20047;-77
2023/07/09 05:05:29;;;;;;;6.90;3.03;;;;;;;20.74;57.43;97134.09;6275588;22;20020;-77
2023/07/09 05:07:58;;;;;;;3.95;3.08;;;;;;;20.72;57.46;97131.66;6275549;22;20023;-77
2023/07/09 05:10:26;;;;;;;5.18;3.05;;;;;;;20.71;57.60;97127.41;6274905;22;20047;-77
2023/07/09 05:12:55;;;;;;;5.63;2.90;;;;;;;20.75;57.39;97133.03;6275615;22;20024;-77
2023/07/09 05:15:24;;;;;;;4.22;2.80;;;;;;;20.82;57.35;97136.41;6274898;22;20032;-77
2023/07/09 05:17:52;;;;;;;7.20;3.30;;;;;;;20.87;57.32;97139.13;6275496;22;20115;-77
2023/07/09 05:20:21;;;;;;;5.82;3.30;;;;;;;20.94;57.14;97139.00;6274462;22;20024;-77
2023/07/09 05:22:48;;;;;;;5.28;3.28;;;;;;;21.02;57.00;97136.00;6275336;22;20020;-77
2023/07/09 05:25:17;;;;;;;5.82;3.90;;;;;;;21.09;56.96;97141.16;6274895;22;20469;-77
2023/07/09 05:27:45;;;;;;;5.78;3.58;;;;;;;21.14;56.87;97135.94;6275210;22;20023;-77
2023/07/09 05:30:13;;;;;;;8.25;3.83;;;;;;;21.20;57.00;97138.47;6274833;22;20445;-77
2023/07/09 05:32:40;;;;;;;4.47;3.00;;;;;;;21.27;56.80;97140.16;6275174;22;20102;-77
2023/07/09 05:35:09;;;;;;;5.40;2.95;;;;;;;21.31;56.90;97142.13;6274868;22;20468;-77
2023/07/09 05:37:37;;;;;;;5.68;3.20;;;;;;;21.34;56.93;97138.16;6276170;22;20069;-77
2023/07/09 05:40:06;;;;;;;6.00;3.45;;;;;;;21.36;56.60;97139.56;6276455;22;20020;-77
2023/07/09 05:42:35;;;;;;;6.22;3.58;;;;;;;21.40;56.74;97143.34;6277347;22;20050;-77
2023/07/09 05:45:03;;;;;;;4.47;3.17;;;;;;;21.44;56.57;97137.59;6277108;22;20467;-77
2023/07/09 05:47:31;;;;;;;5.30;3.25;;;;;;;21.49;56.65;97146.44;6276622;22;20507;-77
2023/07/09 05:49:59;;;;;;;7.18;3.05;;;;;;;21.55;56.41;97150.00;6276785;22;20051;-77
2023/07/09 05:52:28;;;;;;;4.10;2.95;;;;;;;21.60;56.33;97139.47;6276863;22;20081;-77
2023/07/09 05:54:56;;;;;;;4.30;2.70;;;;;;;21.65;56.32;97144.88;6280825;22;20020;-77
2023/07/09 05:57:24;;;;;;;4.50;2.90;;;;;;;21.71;56.20;97148.41;6292760;22;20027;-77
2023/07/09 05:59:52;;;;;;;5.15;3.30;;;;;;;21.78;56.47;97151.75;6288938;22;20023;-77
2023/07/09 06:02:21;;;;;;;5.05;3.22;;;;;;;21.84;56.54;97142.00;6278315;22;20015;-77
2023/07/09 06:04:49;;;;;;;5.13;2.70;;;;;;;21.91;56.29;97140.81;6277685;22;20493;-77
2023/07/09 06:07:18;;;;;;;4.35;3.22;;;;;;;21.99;56.19;97139.59;6277138;22;20460;-77
2023/07/09 06:09:47;;;;;;;4.80;3.25;;;;;;;22.06;56.42;97145.53;6276478;22;20026;-77
2023/07/09 06:12:15;;;;;;;4.50;3.17;;;;;;;22.13;56.30;97130.25;6276997;22;20357;-77
2023/07/09 06:14:42;;;;;;;5.60;3.08;;;;;;;22.20;56.00;97138.88;6277287;22;20024;-77
2023/07/09 06:17:11;;;;;;;5.88;2.50;;;;;;;22.28;55.88;97129.72;6277300;22;20094;-77
2023/07/09 06:19:39;;;;;;;5.35;3.42;;;;;;;22.35;55.71;97130.34;6276587;22;20078;-77
2023/07/09 06:22:07;;;;;;;3.95;2.80;;;;;;;22.45;55.27;97132.34;6276369;22;20488;-79
2023/07/09 06:24:34;;;;;;;5.75;3.17;;;;;;;22.54;55.28;97138.88;6280772;22;20023;-80
2023/07/09 06:27:02;;;;;;;3.70;2.78;;;;;;;22.62;54.63;97138.41;6288293;22;20472;-79
2023/07/09 06:29:30;;;;;;;6.32;2.95;;;;;;;22.72;54.63;97135.09;6291355;22;20527;-81
2023/07/09 06:31:58;;;;;;;7.65;3.38;;;;;;;22.80;54.62;97134.66;6296717;22;20046;-79
2023/07/09 06:34:27;;;;;;;3.95;3.00;;;;;;;22.88;54.31;97141.41;6297433;22;20020;-79
2023/07/09 06:36:57;;;;;;;4.35;3.10;;;;;;;22.97;54.35;97133.81;6295181;22;20015;-79
2023/07/09 06:39:25;;;;;;;5.70;3.45;;;;;;;23.10;54.13;97143.31;6289874;22;20086;-80
2023/07/09 06:41:53;;;;;;;4.47;3.40;;;;;;;23.19;53.53;97139.13;6291220;22;20073;-80
2023/07/09 06:44:20;;;;;;;3.78;3.10;;;;;;;23.31;53.71;97139.81;6300617;22;20054;-80
2023/07/09 06:46:48;;;;;;;4.82;3.13;;;;;;;23.42;53.60;97138.88;6297188;22;20038;-79
2023/07/09 06:49:15;;;;;;;4.63;3.17;;;;;;;23.55;53.10;97139.50;6298249;22;20027;-80
2023/07/09 06:51:46;;;;;;;5.80;3.78;;;;;;;23.67;53.18;97145.50;6297543;22;20083;-80
2023/07/09 06:54:15;;;;;;;12.10;4.80;;;;;;;23.78;52.58;97143.75;6286001;22;20019;-79
2023/07/09 06:56:43;;;;;;;5.93;3.42;;;;;;;23.88;52.09;97145.69;6284124;22;20461;-79
2023/07/09 06:59:10;;;;;;;5.15;3.25;;;;;;;23.97;52.13;97147.66;6286813;22;20039;-79
2023/07/09 07:01:38;;;;;;;3.72;2.80;;;;;;;24.10;51.54;97150.94;6289340;22;20546;-81
2023/07/09 07:04:06;;;;;;;4.28;3.20;;;;;;;24.21;50.93;97153.44;6281605;22;20016;-80
2023/07/09 07:06:34;;;;;;;4.32;2.90;;;;;;;24.30;50.89;97150.28;6281775;22;20262;-80
2023/07/09 07:09:03;;;;;;;6.75;2.83;;;;;;;24.35;50.44;97156.44;6277225;22;20267;-80
2023/07/09 07:11:31;;;;;;;4.68;3.20;;;;;;;24.44;50.23;97156.78;6278759;22;20020;-79
2023/07/09 07:13:58;;;;;;;4.47;2.80;;;;;;;24.51;49.95;97157.41;6277528;22;20031;-80
2023/07/09 07:16:26;;;;;;;4.30;2.97;;;;;;;24.57;49.80;97164.34;6275912;22;20073;-79
2023/07/09 07:18:54;;;;;;;4.25;2.97;;;;;;;24.65;49.72;97161.19;6276782;22;20472;-80
2023/07/09 07:21:21;;;;;;;4.55;3.10;;;;;;;24.75;49.34;97159.63;6276618;22;20023;-80
2023/07/09 07:23:49;;;;;;;5.47;3.03;;;;;;;24.85;49.23;97157.03;6279232;22;20624;-80
2023/07/09 07:26:22;;;;;;;5.43;3.22;;;;;;;24.95;48.63;97156.25;6278619;22;20349;-80
2023/07/09 07:28:50;;;;;;;6.60;3.28;;;;;;;25.02;48.47;97152.31;6277194;22;20024;-79
2023/07/09 07:31:17;;;;;;;5.95;3.08;;;;;;;25.13;48.13;97155.03;6276251;22;20020;-79
2023/07/09 07:33:45;;;;;;;4.63;3.42;;;;;;;25.28;47.87;97149.75;6276783;22;20023;-80
2023/07/09 07:36:13;;;;;;;3.70;2.63;;;;;;;25.40;47.33;97155.66;6269178;22;20078;-80
2023/07/09 07:38:57;;;;;;;4.25;2.90;;;;;;;25.52;47.20;97154.59;6277018;22;20081;-80
2023/07/09 07:41:26;;;;;;;3.00;2.67;;;;;;;25.62;46.77;97159.97;6275639;22;20026;-79
2023/07/09 07:43:54;;;;;;;6.22;3.15;;;;;;;25.70;46.41;97156.78;6275826;22;20023;-79
2023/07/09 07:46:21;;;;;;;3.78;3.10;;;;;;;25.81;45.91;97157.59;6277414;22;20023;-80
2023/07/09 07:48:49;;;;;;;4.13;3.03;;;;;;;25.93;45.13;97149.34;6277808;22;20020;-80
2023/07/09 07:51:17;;;;;;;3.35;2.70;;;;;;;26.04;44.94;97141.06;6275970;22;20050;-79
2023/07/09 07:53:44;;;;;;;6.25;3.13;;;;;;;26.15;44.77;97147.22;6278001;22;20086;-80
2023/07/09 07:56:12;;;;;;;4.22;2.80;;;;;;;26.22;44.53;97154.97;6279586;22;20078;-80
2023/07/09 07:58:41;;;;;;;3.70;2.70;;;;;;;26.28;44.28;97151.19;6279948;22;20023;-80
2023/07/09 08:01:09;;;;;;;3.58;2.83;;;;;;;26.31;44.33;97151.47;6279492;22;20102;-80
2023/07/09 08:03:36;;;;;;;4.35;2.75;;;;;;;26.38;44.12;97139.69;6282050;22;20084;-79
2023/07/09 08:06:04;;;;;;;5.75;4.28;;;;;;;26.46;43.47;97141.81;6283619;22;20019;-80
2023/07/09 08:08:32;;;;;;;6.05;3.55;;;;;;;26.53;42.87;97145.00;6282010;22;20019;-80
2023/07/09 08:11:07;;;;;;;5.35;2.90;;;;;;;26.56;43.24;97141.03;6280867;22;20024;-84
2023/07/09 08:13:36;;;;;;;4.63;3.85;;;;;;;26.67;42.89;97147.94;6277113;22;20016;-81
2023/07/09 08:16:06;;;;;;;4.35;3.25;;;;;;;26.83;42.45;97141.50;6276244;22;20535;-81
2023/07/09 08:18:34;;;;;;;5.15;2.88;;;;;;;26.98;41.50;97137.13;6277112;22;20015;-81
2023/07/09 08:21:03;;;;;;;17.38;10.80;;;;;;;27.11;41.37;97142.72;6276488;22;20081;-82
2023/07/09 08:23:31;;;;;;;11.77;6.53;;;;;;;27.24;40.71;97135.97;6273837;22;20019;-81
2023/07/09 08:26:01;;;;;;;10.07;6.57;;;;;;;27.36;40.77;97135.66;6276016;22;20023;-81
2023/07/09 08:28:30;;;;;;;4.10;2.95;;;;;;;27.52;40.17;97133.66;6275311;22;20020;-82
2023/07/09 08:30:59;;;;;;;5.40;3.40;;;;;;;27.69;39.97;97128.72;6275981;22;20302;-81
2023/07/09 08:33:28;;;;;;;5.72;3.88;;;;;;;27.82;39.63;97132.66;6291180;22;20457;-81
2023/07/09 08:35:56;;;;;;;4.63;3.17;;;;;;;27.89;38.90;97130.47;6279119;22;20477;-82
2023/07/09 08:38:24;;;;;;;4.57;2.85;;;;;;;27.96;38.48;97137.41;6277788;22;20046;-82
2023/07/09 08:40:57;;;;;;;5.40;2.83;;;;;;;28.10;37.95;97141.06;6277937;22;20020;-82
2023/07/09 08:43:34;;;;;;;4.20;3.08;;;;;;;28.24;37.69;97141.97;6279024;22;20231;-81
2023/07/09 08:46:08;;;;;;;7.07;2.58;;;;;;;28.37;37.83;97134.34;6279443;22;20078;-81
2023/07/09 08:48:40;;;;;;;4.45;2.85;;;;;;;28.49;37.00;97132.09;6279910;22;20024;-81
2023/07/09 08:51:15;;;;;;;4.60;2.90;;;;;;;28.60;36.67;97128.25;6279418;22;20035;-81
2023/07/09 08:53:49;;;;;;;4.40;2.90;;;;;;;28.75;36.05;97138.00;6278577;22;20016;-81
2023/07/09 08:56:18;;;;;;;4.57;3.05;;;;;;;28.86;35.96;97128.75;6280664;22;20023;-81
2023/07/09 08:58:47;;;;;;;8.70;3.13;;;;;;;29.00;35.30;97136.13;6288109;22;20065;-81
2023/07/09 09:01:20;;;;;;;7.32;3.75;;;;;;;29.09;33.72;97132.50;6287606;22;20019;-81
2023/07/09 09:03:51;;;;;;;4.00;2.67;;;;;;;29.21;33.63;97125.91;6291163;22;20020;-83
2023/07/09 09:06:22;;;;;;;5.03;3.08;;;;;;;29.34;34.03;97134.06;6292097;22;20024;-82
2023/07/09 09:09:07;;;;;;;4.05;2.55;;;;;;;29.48;34.17;97136.03;6292481;22;20070;-82
2023/07/09 09:11:44;;;;;;;4.40;2.90;;;;;;;29.61;33.15;97135.31;6283872;22;20102;-82
2023/07/09 09:14:26;;;;;;;5.18;2.65;;;;;;;29.72;33.17;97135.97;6281294;22;20016;-82
2023/07/09 09:16:55;;;;;;;5.25;3.50;;;;;;;29.80;32.08;97132.59;6279604;22;20383;-80
2023/07/09 09:19:28;;;;;;;5.65;2.70;;;;;;;29.91;32.11;97128.69;6279246;22;20468;-80
2023/07/09 09:22:03;;;;;;;4.63;3.00;;;;;;;30.03;32.02;97132.81;6282095;22;20027;-82
2023/07/09 09:24:38;;;;;;;3.83;2.85;;;;;;;30.10;32.28;97130.53;6280837;22;20379;-85
2023/07/09 09:27:09;;;;;;;4.75;2.80;;;;;;;30.06;32.70;97135.69;6280581;22;20049;-85
2023/07/09 09:29:37;;;;;;;3.83;2.70;;;;;;;30.02;32.75;97133.88;6281380;22;20016;-84
2023/07/09 09:32:22;;;;;;;4.40;2.78;;;;;;;29.96;31.82;97131.28;6280725;22;20012;-85
2023/07/09 09:34:52;;;;;;;5.43;2.88;;;;;;;29.91;32.06;97128.69;6278806;22;20095;-84
2023/07/09 09:37:32;;;;;;;4.40;2.70;;;;;;;29.91;32.69;97127.88;6278827;22;20020;-86
2023/07/09 09:40:00;;;;;;;4.82;2.60;;;;;;;29.89;32.12;97119.28;6280114;22;20020;-86
2023/07/09 09:42:44;;;;;;;3.78;2.50;;;;;;;29.86;32.27;97136.81;6277968;22;20514;-86
2023/07/09 09:45:17;;;;;;;5.47;2.75;;;;;;;29.81;32.66;97136.91;6279638;22;20019;-86
2023/07/09 09:47:46;;;;;;;5.18;3.10;;;;;;;29.80;33.75;97135.28;6280613;22;20085;-85
2023/07/09 09:50:17;;;;;;;4.38;2.80;;;;;;;29.79;32.68;97136.41;6279859;22;20038;-85
2023/07/09 09:52:46;;;;;;;4.40;2.45;;;;;;;29.81;32.55;97133.44;6279493;22;20015;-85
2023/07/09 09:55:19;;;;;;;5.28;2.70;;;;;;;29.80;32.10;97137.97;6278919;22;20016;-86
2023/07/09 09:57:51;;;;;;;3.75;2.67;;;;;;;29.82;31.69;97138.50;6281077;22;20020;-85
2023/07/09 10:00:23;;;;;;;4.13;2.50;;;;;;;29.84;32.98;97130.94;6283318;22;20015;-85
2023/07/09 10:02:51;;;;;;;3.60;2.92;;;;;;;29.88;31.56;97131.94;6281878;22;20386;-84
2023/07/09 10:05:28;;;;;;;6.18;2.83;;;;;;;29.97;32.61;97135.56;6281495;22;20071;-85
2023/07/09 10:08:03;;;;;;;3.95;2.72;;;;;;;29.97;32.38;97130.19;6283207;22;20291;-83
2023/07/09 10:10:33;;;;;;;5.18;3.13;;;;;;;29.98;32.13;97129.09;6278849;22;20015;-85
2023/07/09 10:13:11;;;;;;;5.45;3.58;;;;;;;30.04;31.20;97127.09;6281820;22;20019;-85
2023/07/09 10:15:43;;;;;;;3.92;2.63;;;;;;;30.09;32.23;97135.09;6281502;22;20089;-85
2023/07/09 10:18:29;;;;;;;4.20;2.92;;;;;;;30.10;32.13;97130.53;6281595;22;20020;-85
2023/07/09 10:21:06;;;;;;;5.25;2.97;;;;;;;30.08;32.26;97132.69;6278864;22;20461;-85
2023/07/09 10:23:45;;;;;;;5.15;3.22;;;;;;;30.07;32.32;97136.50;6279289;22;20020;-84
2023/07/09 10:26:17;;;;;;;4.85;2.72;;;;;;;30.08;32.51;97132.69;6280436;22;20023;-86
2023/07/09 10:29:04;;;;;;;3.78;2.92;;;;;;;30.11;31.22;97132.09;6281040;22;20015;-86
2023/07/09 10:31:42;;;;;;;3.58;2.70;;;;;;;30.17;31.99;97131.75;6279729;22;20349;-86
2023/07/09 10:34:27;;;;;;;3.95;2.75;;;;;;;30.23;31.73;97135.13;6282389;22;20495;-85
2023/07/09 11:47:50;;;;;;;3.13;2.67;;;;;;;30.62;29.92;97077.38;6228942;22;20023;-86
2023/07/09 11:50:25;;;;;;;4.32;3.03;;;;;;;30.65;29.40;97086.75;6252443;23;20361;-87
2023/07/09 11:52:57;;;;;;;4.15;3.13;;;;;;;30.72;29.21;97076.34;6255777;23;20016;-85
2023/07/09 11:55:30;;;;;;;6.00;3.10;;;;;;;30.75;30.41;97070.41;6253298;23;20094;-85
2023/07/09 11:58:00;;;;;;;6.47;2.75;;;;;;;30.71;30.29;97062.09;6267618;22;20026;-84
2023/07/09 12:00:31;;;;;;;5.40;2.60;;;;;;;30.73;29.98;97065.28;6280007;22;20046;-86
2023/07/09 12:03:01;;;;;;;6.17;3.03;;;;;;;30.73;29.91;97068.00;6276902;22;20024;-86
2023/07/09 12:05:30;;;;;;;5.03;2.95;;;;;;;30.67;30.33;97066.50;6279699;22;20257;-85
2023/07/09 12:07:59;;;;;;;3.03;2.75;;;;;;;30.59;30.47;97061.81;6280763;22;20012;-85
2023/07/09 12:10:29;;;;;;;3.50;2.80;;;;;;;30.56;29.87;97062.41;6282388;22;20062;-85
2023/07/09 12:12:58;;;;;;;4.38;2.63;;;;;;;30.54;30.13;97060.00;6277225;22;20023;-85
2023/07/09 12:15:27;;;;;;;6.43;3.30;;;;;;;30.59;29.50;97061.81;6276543;22;20046;-86
2023/07/09 12:17:58;;;;;;;5.57;2.83;;;;;;;30.67;29.84;97061.09;6280248;22;20020;-85
2023/07/09 12:20:31;;;;;;;6.80;3.20;;;;;;;30.67;30.01;97058.41;6281480;22;20031;-85
2023/07/09 12:22:59;;;;;;;4.55;3.08;;;;;;;30.67;29.10;97044.16;6276363;22;20073;-86
2023/07/09 12:25:35;;;;;;;4.97;3.38;;;;;;;30.73;29.10;97051.84;6278264;22;20069;-85
2023/07/09 12:28:05;;;;;;;5.70;3.25;;;;;;;30.80;29.39;97046.81;6275708;22;20020;-86
2023/07/09 12:30:33;;;;;;;4.05;2.95;;;;;;;30.85;28.82;97051.31;6276770;22;20019;-86
2023/07/09 12:33:01;;;;;;;6.82;3.05;;;;;;;30.88;29.49;97047.28;6276405;22;20062;-86
2023/07/09 12:35:31;;;;;;;6.18;2.97;;;;;;;30.88;29.06;97047.28;6277336;22;20016;-86
2023/07/09 12:37:58;;;;;;;8.20;3.28;;;;;;;30.90;29.40;97039.69;6277450;22;20066;-86
2023/07/09 12:40:32;;;;;;;7.35;4.93;;;;;;;30.95;29.38;97042.25;6277388;22;20016;-87
2023/07/09 12:43:01;;;;;;;4.28;3.70;;;;;;;30.91;29.81;97025.09;6279601;22;20449;-84
2023/07/09 12:45:30;;;;;;;7.25;3.75;;;;;;;30.86;29.95;97025.22;6282131;22;20016;-85
2023/07/09 12:47:58;;;;;;;8.00;3.78;;;;;;;30.80;30.14;97025.28;6285290;22;20457;-86
2023/07/09 12:50:35;;;;;;;6.38;3.70;;;;;;;30.80;29.14;97032.56;6279691;22;20461;-86
2023/07/09 12:53:12;;;;;;;5.10;3.40;;;;;;;30.85;29.60;97027.06;6286809;22;20019;-85
2023/07/09 12:55:43;;;;;;;7.30;3.13;;;;;;;30.86;29.47;97026.00;6286622;22;20016;-84